Time;durP1;ratioP1;P1;durP2;ratioP2;P2;SDS_P1;SDS_P2;PMS_P1;PMS_P2;Temp;Humidity;BMP_temperature;BMP_pressure;BME280_temperature;BME280_humidity;BME280_pressure;Samples;Min_cycle;Max_cycle;Signal;HPM_P1;HPM_P2
2021/12/05 00:21:04;;;;;;;46.53;22.67;;;0.20;99.90;;;;;;5089441;28;20174;-80
2021/12/05 00:23:39;;;;;;;47.53;24.20;;;0.20;99.90;;;;;;5089228;28;20187;-79
2021/12/05 00:26:11;;;;;;;50.80;25.70;;;0.20;99.90;;;;;;5089737;28;20543;-80
2021/12/05 00:43:00;;;;;;;46.33;22.63;;;0.10;99.90;;;;;;5089036;28;20229;-80
2021/12/05 00:48:34;;;;;;;47.83;22.53;;;0.10;99.90;;;;;;5088446;28;20317;-79
2021/12/05 00:56:50;;;;;;;55.37;26.57;;;0.10;99.90;;;;;;5088353;28;20559;-80
2021/12/05 00:59:32;;;;;;;53.73;24.87;;;0.10;99.90;;;;;;5088133;28;20192;-79
2021/12/05 01:05:07;;;;;;;48.00;24.27;;;0.10;99.90;;;;;;5075104;28;20313;-79
2021/12/05 01:07:56;;;;;;;40.67;20.63;;;0.10;99.90;;;;;;5075326;28;20191;-80
2021/12/05 01:10:37;;;;;;;46.50;23.23;;;0.10;99.90;;;;;;5075231;28;20538;-80
2021/12/05 01:16:07;;;;;;;52.37;24.10;;;0.20;99.90;;;;;;5054023;28;20196;-80
2021/12/05 01:18:34;;;;;;;43.37;22.17;;;0.10;99.90;;;;;;5079019;28;20183;-80
2021/12/05 01:21:07;;;;;;;52.43;27.53;;;0.10;99.90;;;;;;5094877;28;20690;-79
2021/12/05 01:23:43;;;;;;;53.80;27.33;;;0.20;99.90;;;;;;5095252;28;20175;-80
2021/12/05 01:26:14;;;;;;;48.97;26.00;;;0.20;99.90;;;;;;5095201;28;20583;-79
2021/12/05 01:29:07;;;;;;;52.63;25.63;;;0.20;99.90;;;;;;5095436;28;20654;-80
2021/12/05 01:31:45;;;;;;;41.87;21.73;;;0.20;99.90;;;;;;5095148;28;20175;-80
2021/12/05 01:34:29;;;;;;;54.13;26.73;;;0.20;99.90;;;;;;5094989;28;20183;-79
2021/12/05 01:37:06;;;;;;;40.23;21.43;;;0.20;99.90;;;;;;5094631;28;20190;-79
2021/12/05 01:39:47;;;;;;;51.23;25.83;;;0.20;99.90;;;;;;5094666;28;20581;-80
2021/12/05 01:42:57;;;;;;;54.87;27.03;;;0.20;99.90;;;;;;5094602;28;20195;-79
2021/12/05 01:48:53;;;;;;;51.30;25.27;;;0.30;99.90;;;;;;5090284;28;20737;-79
2021/12/05 01:59:54;;;;;;;52.57;25.33;;;0.30;99.90;;;;;;5067088;28;20659;-83
2021/12/05 02:16:39;;;;;;;48.73;25.13;;;0.30;99.90;;;;;;5073948;28;20218;-83
2021/12/05 02:30:34;;;;;;;50.53;24.63;;;0.30;99.90;;;;;;5059154;28;20226;-81
2021/12/05 02:33:18;;;;;;;44.03;22.83;;;0.30;99.90;;;;;;5093939;28;20183;-81
2021/12/05 02:41:21;;;;;;;52.00;25.47;;;0.30;99.90;;;;;;5080168;28;20190;-79
2021/12/05 02:43:58;;;;;;;49.07;25.70;;;0.30;99.90;;;;;;5088970;28;20204;-79
2021/12/05 02:46:26;;;;;;;46.93;22.50;;;0.30;99.90;;;;;;5073512;28;20183;-80
2021/12/05 02:48:55;;;;;;;53.90;26.13;;;0.40;99.90;;;;;;5078092;28;20229;-79
2021/12/05 02:51:27;;;;;;;51.67;26.50;;;0.40;99.90;;;;;;5093182;28;20233;-79
2021/12/05 02:54:04;;;;;;;53.27;27.37;;;0.40;99.90;;;;;;5094184;28;20202;-79
2021/12/05 02:56:33;;;;;;;57.73;26.23;;;0.40;99.90;;;;;;5093456;28;20186;-83
2021/12/05 02:59:07;;;;;;;50.93;23.77;;;0.40;99.90;;;;;;5093800;28;20513;-80
2021/12/05 03:01:39;;;;;;;46.57;24.23;;;0.40;99.90;;;;;;5093391;28;20179;-81
2021/12/05 03:04:08;;;;;;;56.63;26.47;;;0.40;99.90;;;;;;5093372;28;20183;-84
2021/12/05 03:06:38;;;;;;;52.47;24.97;;;0.40;99.90;;;;;;5093308;28;20199;-82
2021/12/05 03:09:12;;;;;;;55.20;26.33;;;0.50;99.90;;;;;;5093355;28;20203;-80
2021/12/05 03:11:40;;;;;;;47.63;24.30;;;0.50;99.90;;;;;;5092838;28;20273;-79
2021/12/05 03:14:07;;;;;;;52.33;25.73;;;0.50;99.90;;;;;;5093140;28;20245;-79
2021/12/05 03:16:37;;;;;;;51.77;25.13;;;0.50;99.90;;;;;;5093108;28;20190;-79
2021/12/05 03:19:06;;;;;;;53.37;27.90;;;0.50;99.90;;;;;;5085661;28;20726;-79
2021/12/05 03:21:35;;;;;;;49.63;25.70;;;0.50;99.90;;;;;;5072731;28;20238;-79
2021/12/05 03:24:04;;;;;;;36.70;20.07;;;0.50;99.90;;;;;;5072467;28;20241;-79
2021/12/05 03:26:36;;;;;;;50.17;26.10;;;0.50;99.90;;;;;;5072816;28;20191;-79
2021/12/05 03:29:07;;;;;;;47.37;22.37;;;0.50;99.90;;;;;;5072296;28;20250;-79
2021/12/05 03:31:35;;;;;;;51.10;25.80;;;0.50;99.90;;;;;;5072328;28;20645;-80
2021/12/05 03:34:07;;;;;;;53.37;26.20;;;0.50;99.90;;;;;;5072263;28;20192;-80
2021/12/05 03:36:35;;;;;;;44.23;23.00;;;0.50;99.90;;;;;;5072335;28;20266;-79
2021/12/05 03:39:05;;;;;;;47.33;23.87;;;0.50;99.90;;;;;;5072839;28;20245;-80
2021/12/05 03:41:34;;;;;;;49.30;24.37;;;0.50;99.90;;;;;;5084275;28;20252;-79
2021/12/05 03:44:03;;;;;;;52.40;26.40;;;0.50;99.90;;;;;;5092469;28;20586;-79
2021/12/05 03:46:32;;;;;;;50.60;25.90;;;0.50;99.90;;;;;;5087995;28;20188;-79
2021/12/05 03:49:05;;;;;;;60.67;27.70;;;0.50;99.90;;;;;;5072462;28;20242;-79
2021/12/05 03:51:34;;;;;;;48.97;25.87;;;0.50;99.90;;;;;;5072188;28;20184;-79
2021/12/05 03:54:01;;;;;;;50.07;25.27;;;0.50;99.90;;;;;;5072190;28;20199;-79
2021/12/05 03:56:28;;;;;;;57.10;28.97;;;0.50;99.90;;;;;;5072449;28;20249;-83
2021/12/05 03:58:57;;;;;;;56.00;27.70;;;0.50;99.90;;;;;;5072482;28;20257;-79
2021/12/05 04:01:25;;;;;;;56.53;26.80;;;0.50;99.90;;;;;;5072676;28;20275;-80
2021/12/05 04:03:53;;;;;;;57.17;27.83;;;0.50;99.90;;;;;;5072552;28;20192;-82
2021/12/05 04:06:24;;;;;;;52.97;27.87;;;0.50;99.90;;;;;;5071966;28;20698;-81
2021/12/05 04:08:51;;;;;;;57.87;25.37;;;0.50;99.90;;;;;;5072653;28;20176;-80
2021/12/05 04:11:26;;;;;;;48.93;26.47;;;0.50;99.90;;;;;;5072250;28;20203;-83
2021/12/05 04:13:53;;;;;;;58.53;29.17;;;0.50;99.90;;;;;;5072698;28;20180;-82
2021/12/05 04:16:22;;;;;;;54.23;28.33;;;0.50;99.90;;;;;;5072121;28;20196;-83
2021/12/05 04:18:49;;;;;;;54.13;26.50;;;0.40;99.90;;;;;;5072226;28;20192;-82
2021/12/05 04:21:17;;;;;;;47.93;23.50;;;0.40;99.90;;;;;;5071861;28;20192;-82
2021/12/05 04:23:45;;;;;;;55.47;28.87;;;0.40;99.90;;;;;;5072108;28;20196;-83
2021/12/05 04:26:12;;;;;;;55.30;26.20;;;0.40;99.90;;;;;;5072150;28;20609;-81
2021/12/05 04:28:39;;;;;;;52.07;25.13;;;0.40;99.90;;;;;;5071829;28;20606;-82
2021/12/05 04:31:07;;;;;;;55.17;28.27;;;0.40;99.90;;;;;;5071990;28;20192;-79
2021/12/05 04:33:37;;;;;;;46.20;21.13;;;0.40;99.90;;;;;;5072069;28;20231;-79
2021/12/05 04:36:05;;;;;;;55.30;26.53;;;0.40;99.90;;;;;;5074298;28;20253;-79
2021/12/05 04:38:32;;;;;;;61.60;30.73;;;0.40;99.90;;;;;;5081408;28;20213;-79
2021/12/05 04:40:59;;;;;;;56.37;26.67;;;0.40;99.90;;;;;;5095721;28;20248;-79
2021/12/05 04:43:26;;;;;;;59.43;29.70;;;0.40;99.90;;;;;;5095891;28;20674;-79
2021/12/05 04:45:53;;;;;;;55.50;29.40;;;0.40;99.90;;;;;;5095586;28;20585;-79
2021/12/05 04:48:20;;;;;;;57.10;29.23;;;0.30;99.90;;;;;;5095740;28;20226;-79
2021/12/05 04:50:49;;;;;;;56.43;28.30;;;0.40;99.90;;;;;;5095763;28;20215;-79
2021/12/05 04:53:16;;;;;;;55.33;28.13;;;0.40;99.90;;;;;;5095448;28;20187;-81
2021/12/05 04:55:43;;;;;;;51.27;26.43;;;0.30;99.90;;;;;;5095428;28;20241;-79
2021/12/05 04:58:10;;;;;;;58.00;29.07;;;0.30;99.90;;;;;;5095669;28;20528;-79
2021/12/05 05:00:41;;;;;;;63.90;33.20;;;0.30;99.90;;;;;;5095590;28;20195;-79
2021/12/05 05:03:09;;;;;;;66.73;31.70;;;0.30;99.90;;;;;;5095720;28;20183;-80
2021/12/05 05:05:39;;;;;;;61.10;30.13;;;0.40;99.90;;;;;;5095565;28;20567;-83
2021/12/05 05:08:08;;;;;;;57.40;27.60;;;0.30;99.90;;;;;;5092672;28;20187;-82
2021/12/05 05:10:36;;;;;;;53.60;26.10;;;0.40;99.90;;;;;;5094726;28;20680;-77
2021/12/05 05:13:03;;;;;;;59.07;30.07;;;0.30;99.90;;;;;;5095002;28;20717;-81
2021/12/05 05:15:31;;;;;;;58.07;29.23;;;0.30;99.90;;;;;;5095193;28;20659;-79
2021/12/05 05:17:59;;;;;;;62.73;31.90;;;0.30;99.90;;;;;;5095300;28;20591;-79
2021/12/05 05:20:34;;;;;;;60.23;27.90;;;0.30;99.90;;;;;;5095457;28;20260;-79
2021/12/05 05:23:16;;;;;;;63.13;30.43;;;0.30;99.90;;;;;;5094977;28;20270;-79
2021/12/05 05:45:23;;;;;;;53.50;24.13;;;0.20;99.90;;;;;;5074374;28;20536;-79
2021/12/05 05:48:16;;;;;;;60.43;28.93;;;0.20;99.90;;;;;;5073795;28;20215;-79
2021/12/05 05:50:45;;;;;;;51.97;25.47;;;0.20;99.90;;;;;;5074372;28;20300;-79
2021/12/05 05:53:15;;;;;;;57.90;26.73;;;0.20;99.90;;;;;;5074414;28;20295;-79
2021/12/05 05:55:42;;;;;;;58.97;28.57;;;0.20;99.90;;;;;;5074684;28;20192;-79
2021/12/05 05:58:13;;;;;;;70.97;38.50;;;0.20;99.90;;;;;;5074317;28;20196;-79
2021/12/05 06:00:52;;;;;;;79.17;44.53;;;0.20;99.90;;;;;;5074239;28;20188;-79
2021/12/05 06:03:22;;;;;;;66.37;30.47;;;0.20;99.90;;;;;;5074235;28;20191;-79
2021/12/05 06:05:51;;;;;;;68.93;33.23;;;0.20;99.90;;;;;;5074142;28;20279;-79
2021/12/05 06:08:20;;;;;;;62.00;31.70;;;0.10;99.90;;;;;;5082490;28;20199;-79
2021/12/05 06:10:47;;;;;;;70.87;37.47;;;0.20;99.90;;;;;;5093939;28;20215;-79
2021/12/05 06:13:18;;;;;;;80.97;38.80;;;0.20;99.90;;;;;;5094204;28;20530;-79
2021/12/05 06:15:46;;;;;;;69.77;34.93;;;0.20;99.90;;;;;;5093535;28;20188;-79
2021/12/05 06:18:14;;;;;;;78.53;37.50;;;0.20;99.90;;;;;;5094163;28;20191;-79
2021/12/05 06:20:42;;;;;;;68.60;34.23;;;0.20;99.90;;;;;;5094118;28;20248;-79
2021/12/05 06:23:11;;;;;;;66.10;32.07;;;0.20;99.90;;;;;;5094001;28;20274;-79
2021/12/05 06:25:41;;;;;;;82.20;41.37;;;0.20;99.90;;;;;;5079635;28;20196;-79
2021/12/05 06:28:14;;;;;;;72.03;37.00;;;0.20;99.90;;;;;;5074014;28;20187;-79
2021/12/05 06:30:48;;;;;;;65.53;30.67;;;0.20;99.90;;;;;;5073318;28;20208;-79
2021/12/05 06:39:18;;;;;;;68.93;33.87;;;0.20;99.90;;;;;;5085971;28;20236;-79
2021/12/05 06:41:58;;;;;;;90.10;42.27;;;0.20;99.90;;;;;;5093411;28;20198;-79
2021/12/05 06:47:13;;;;;;;63.70;28.57;;;0.20;99.90;;;;;;5093130;28;20189;-79
2021/12/05 06:49:40;;;;;;;77.60;38.00;;;0.20;99.90;;;;;;5093541;28;20317;-79
2021/12/05 06:52:08;;;;;;;73.67;33.90;;;0.20;99.90;;;;;;5093505;28;20275;-79
2021/12/05 06:54:36;;;;;;;75.10;32.77;;;0.10;99.90;;;;;;5093496;28;20264;-79
2021/12/05 06:57:06;;;;;;;81.53;41.67;;;0.20;99.90;;;;;;5093542;28;20195;-79
2021/12/05 06:59:34;;;;;;;80.47;35.77;;;0.20;99.90;;;;;;5092498;28;20202;-79
2021/12/05 07:02:02;;;;;;;75.40;31.53;;;0.20;99.90;;;;;;5093382;28;20253;-79
2021/12/05 07:04:53;;;;;;;76.80;37.20;;;0.30;99.90;;;;;;5093516;28;20198;-79
2021/12/05 07:07:23;;;;;;;77.50;34.07;;;0.20;99.90;;;;;;5092570;28;20187;-79
2021/12/05 07:09:52;;;;;;;75.23;34.50;;;0.30;99.90;;;;;;5072509;28;20222;-79
2021/12/05 07:15:15;;;;;;;66.83;31.27;;;0.30;99.90;;;;;;5052462;28;20199;-79
2021/12/05 07:20:45;;;;;;;72.33;34.93;;;0.30;99.90;;;;;;5072771;28;20182;-79
2021/12/05 07:23:25;;;;;;;60.20;31.67;;;0.30;99.90;;;;;;5072780;28;20188;-79
2021/12/05 07:26:06;;;;;;;74.77;36.67;;;0.30;99.90;;;;;;5072771;28;20184;-79
2021/12/05 07:42:23;;;;;;;61.50;30.93;;;0.30;99.90;;;;;;5072388;28;20213;-79
2021/12/05 07:44:50;;;;;;;65.87;31.87;;;0.30;99.90;;;;;;5072904;28;20519;-79
2021/12/05 07:47:22;;;;;;;77.07;37.20;;;0.30;99.90;;;;;;5088644;28;20552;-79
2021/12/05 07:49:51;;;;;;;65.73;31.17;;;0.30;99.90;;;;;;5092813;28;20229;-79
2021/12/05 07:52:24;;;;;;;71.47;32.47;;;0.30;99.90;;;;;;5092275;28;20236;-79
2021/12/05 07:54:56;;;;;;;65.83;31.60;;;0.30;99.90;;;;;;5092508;28;20304;-79
2021/12/05 07:57:29;;;;;;;63.20;33.10;;;0.30;99.90;;;;;;5092762;28;20207;-79
2021/12/05 08:00:08;;;;;;;86.80;44.00;;;0.40;99.90;;;;;;5092255;28;20194;-79
2021/12/05 08:16:27;;;;;;;57.27;28.67;;;0.40;99.90;;;;;;5096359;28;20270;-79
2021/12/05 08:18:54;;;;;;;63.20;28.47;;;0.40;99.90;;;;;;5096239;28;20186;-79
2021/12/05 08:21:21;;;;;;;69.57;33.23;;;0.30;99.90;;;;;;5096143;28;20647;-79
2021/12/05 08:23:51;;;;;;;64.30;29.17;;;0.30;99.90;;;;;;5096375;28;20191;-80
2021/12/05 08:26:23;;;;;;;50.63;24.63;;;0.30;99.90;;;;;;5096030;28;20191;-81
2021/12/05 08:29:07;;;;;;;61.10;32.23;;;0.30;99.90;;;;;;5079203;28;20285;-79
2021/12/05 08:31:48;;;;;;;44.07;20.87;;;0.40;99.90;;;;;;5076310;28;20208;-79
2021/12/05 08:34:40;;;;;;;51.97;22.47;;;0.30;99.90;;;;;;5075795;28;20179;-79
2021/12/05 08:37:40;;;;;;;61.40;29.40;;;0.30;99.90;;;;;;5091823;28;20236;-79
2021/12/05 08:40:41;;;;;;;57.73;27.17;;;0.40;99.90;;;;;;5095760;28;20195;-79
2021/12/05 08:46:24;;;;;;;62.20;29.07;;;0.40;99.90;;;;;;5078683;28;20198;-80
2021/12/05 09:08:50;;;;;;;73.77;36.53;;;0.60;99.90;;;;;;5095412;28;20171;-79
2021/12/05 09:23:23;;;;;;;58.57;28.63;;;0.70;99.90;;;;;;5046344;28;20236;-78
2021/12/05 09:40:10;;;;;;;59.23;28.67;;;0.80;99.90;;;;;;5088121;28;20186;-79
2021/12/05 09:51:16;;;;;;;61.57;30.70;;;1.10;99.90;;;;;;5078620;28;20215;-79
2021/12/05 10:07:55;;;;;;;54.43;30.03;;;1.30;99.90;;;;;;5094081;28;20194;-80
2021/12/05 10:10:32;;;;;;;58.20;30.40;;;1.30;99.90;;;;;;5093496;28;20238;-78
2021/12/05 10:13:09;;;;;;;61.73;30.30;;;1.30;99.90;;;;;;5093157;28;20185;-79
2021/12/05 10:15:52;;;;;;;60.63;30.83;;;1.30;99.90;;;;;;5094073;28;20179;-78
2021/12/05 10:27:13;;;;;;;55.63;28.27;;;1.30;99.90;;;;;;5092781;28;20205;-78
2021/12/05 10:38:15;;;;;;;62.53;31.50;;;1.40;99.90;;;;;;5056776;28;20195;-79
2021/12/05 10:40:54;;;;;;;60.63;30.17;;;1.40;99.90;;;;;;5093512;28;20188;-78
2021/12/05 10:43:24;;;;;;;56.50;32.30;;;1.40;99.90;;;;;;5091286;28;20597;-78
2021/12/05 10:46:03;;;;;;;53.83;29.43;;;1.40;99.90;;;;;;5093110;28;20179;-78
2021/12/05 10:48:33;;;;;;;52.37;28.27;;;1.40;99.90;;;;;;5093737;28;20254;-79
2021/12/05 10:51:02;;;;;;;52.17;28.43;;;1.50;99.90;;;;;;5092202;28;20264;-77
2021/12/05 10:53:39;;;;;;;56.13;31.33;;;1.50;99.90;;;;;;5093224;28;20191;-79
2021/12/05 10:56:13;;;;;;;60.60;30.83;;;1.50;99.90;;;;;;5088750;28;20210;-79
2021/12/05 10:58:44;;;;;;;55.83;30.63;;;1.50;99.90;;;;;;5093207;28;20256;-78
2021/12/05 11:01:28;;;;;;;51.43;29.50;;;1.50;99.90;;;;;;5095754;28;20187;-79
2021/12/05 11:04:00;;;;;;;53.33;29.83;;;1.50;99.90;;;;;;5091464;28;20772;-78
2021/12/05 11:06:37;;;;;;;55.83;31.10;;;1.50;99.90;;;;;;5093803;28;20244;-78
2021/12/05 11:09:10;;;;;;;56.17;33.47;;;1.50;99.90;;;;;;5086293;28;20261;-78
2021/12/05 11:11:39;;;;;;;55.57;30.27;;;1.50;99.90;;;;;;5093571;28;20203;-78
2021/12/05 11:14:11;;;;;;;58.07;33.23;;;1.50;99.90;;;;;;5093162;28;20274;-78
2021/12/05 11:16:48;;;;;;;56.40;33.17;;;1.50;99.90;;;;;;5093938;28;20640;-79
2021/12/05 11:19:31;;;;;;;57.93;33.00;;;1.40;99.90;;;;;;5093948;28;20189;-78
2021/12/05 11:22:10;;;;;;;59.63;32.83;;;1.50;99.90;;;;;;5092782;28;20199;-79
2021/12/05 11:24:41;;;;;;;52.30;30.30;;;1.40;99.90;;;;;;5072203;28;20267;-79
2021/12/05 11:27:32;;;;;;;58.07;30.30;;;1.40;99.90;;;;;;5091177;28;20681;-78
2021/12/05 11:30:10;;;;;;;61.50;34.20;;;1.40;99.90;;;;;;5087083;28;20244;-78
2021/12/05 11:32:46;;;;;;;63.50;32.97;;;1.40;99.90;;;;;;5092463;28;20286;-78
2021/12/05 11:35:30;;;;;;;61.73;34.33;;;1.40;99.90;;;;;;5092804;28;20187;-85
2021/12/05 11:38:03;;;;;;;58.20;30.03;;;1.40;99.90;;;;;;5092588;28;20236;-79
2021/12/05 11:40:44;;;;;;;59.87;33.87;;;1.40;99.90;;;;;;5092522;28;20237;-79
2021/12/05 11:43:14;;;;;;;66.30;33.03;;;1.40;99.90;;;;;;5093241;28;20183;-80
2021/12/05 11:45:57;;;;;;;58.03;33.93;;;1.40;99.90;;;;;;5092448;28;20195;-79
2021/12/05 11:48:27;;;;;;;55.37;32.83;;;1.40;99.90;;;;;;5092656;28;20248;-79
2021/12/05 11:50:57;;;;;;;55.90;33.17;;;1.50;99.90;;;;;;5091862;28;20218;-79
2021/12/05 11:53:43;;;;;;;63.13;36.27;;;1.50;99.90;;;;;;5092718;28;20236;-79
2021/12/05 11:56:19;;;;;;;59.57;30.73;;;1.50;99.90;;;;;;5092978;28;20232;-78
2021/12/05 11:58:46;;;;;;;59.03;33.00;;;1.40;99.90;;;;;;5092633;28;20228;-79
2021/12/05 12:01:15;;;;;;;57.60;31.43;;;1.50;99.90;;;;;;5091806;28;20603;-78
2021/12/05 12:03:45;;;;;;;54.23;30.70;;;1.50;99.90;;;;;;5092437;28;20202;-79
2021/12/05 12:06:18;;;;;;;51.07;29.63;;;1.50;99.90;;;;;;5092598;28;20226;-78
2021/12/05 12:08:45;;;;;;;55.93;32.20;;;1.50;99.90;;;;;;5081567;28;20234;-79
2021/12/05 12:11:13;;;;;;;57.93;31.83;;;1.60;99.90;;;;;;5072561;28;20265;-78
2021/12/05 12:13:41;;;;;;;56.67;32.13;;;1.50;99.90;;;;;;5072185;28;20221;-80
2021/12/05 12:16:13;;;;;;;59.63;33.43;;;1.50;99.90;;;;;;5072665;28;20228;-79
2021/12/05 12:18:44;;;;;;;51.87;29.50;;;1.50;99.90;;;;;;5072521;28;20242;-78
2021/12/05 12:21:17;;;;;;;60.17;33.37;;;1.50;99.90;;;;;;5084302;28;20193;-80
2021/12/05 12:23:45;;;;;;;53.17;29.77;;;1.50;99.90;;;;;;5092053;28;20190;-79
2021/12/05 12:26:14;;;;;;;55.67;29.70;;;1.50;99.90;;;;;;5092482;28;20188;-78
2021/12/05 12:28:41;;;;;;;49.23;28.60;;;1.50;99.90;;;;;;5092580;28;20195;-79
2021/12/05 12:31:14;;;;;;;59.57;33.63;;;1.50;99.90;;;;;;5076110;28;20208;-79
2021/12/05 12:33:44;;;;;;;60.47;32.97;;;1.50;99.90;;;;;;5072460;28;20177;-78
2021/12/05 12:36:11;;;;;;;56.27;32.00;;;1.50;99.90;;;;;;5071903;28;20644;-78
2021/12/05 12:38:42;;;;;;;61.77;31.73;;;1.50;99.90;;;;;;5081315;28;20187;-78
2021/12/05 12:41:17;;;;;;;57.20;30.73;;;1.50;99.90;;;;;;5091852;28;20190;-80
2021/12/05 12:43:52;;;;;;;57.87;32.70;;;1.50;99.90;;;;;;5092021;28;20188;-78
2021/12/05 12:46:32;;;;;;;60.47;32.37;;;1.50;99.90;;;;;;5091386;28;20586;-80
2021/12/05 12:49:21;;;;;;;61.43;34.30;;;1.40;99.90;;;;;;5091122;28;20751;-78
2021/12/05 12:51:51;;;;;;;55.93;31.67;;;1.40;99.90;;;;;;5085312;28;20207;-78
2021/12/05 12:54:26;;;;;;;60.33;34.50;;;1.40;99.90;;;;;;5091546;28;20195;-78
2021/12/05 12:57:13;;;;;;;60.33;32.93;;;1.40;99.90;;;;;;5093101;28;20186;-78
2021/12/05 12:59:44;;;;;;;55.97;32.90;;;1.40;99.90;;;;;;5093647;28;20207;-78
2021/12/05 13:10:39;;;;;;;60.17;34.90;;;1.30;99.90;;;;;;5095389;28;20592;-78
2021/12/05 13:13:15;;;;;;;56.27;31.73;;;1.30;99.90;;;;;;5094845;28;20202;-78
2021/12/05 13:15:46;;;;;;;59.73;33.40;;;1.20;99.90;;;;;;5095662;28;20265;-78
2021/12/05 13:18:26;;;;;;;59.37;33.77;;;1.20;99.90;;;;;;5094835;28;20187;-78
2021/12/05 13:20:58;;;;;;;58.20;35.40;;;1.20;99.90;;;;;;5095044;28;20299;-78
2021/12/05 13:23:32;;;;;;;59.17;33.40;;;1.30;99.90;;;;;;5095009;28;20538;-77
2021/12/05 13:26:23;;;;;;;51.23;26.10;;;1.20;99.90;;;;;;5094547;28;20183;-79
2021/12/05 13:28:55;;;;;;;62.13;34.00;;;1.20;99.90;;;;;;5094314;28;20191;-79
2021/12/05 13:31:42;;;;;;;57.80;32.13;;;1.20;99.90;;;;;;5094967;28;20207;-79
2021/12/05 13:34:20;;;;;;;56.67;32.30;;;1.20;99.90;;;;;;5094764;28;20262;-79
2021/12/05 13:36:51;;;;;;;61.43;34.33;;;1.10;99.90;;;;;;5095092;28;20205;-80
2021/12/05 13:39:43;;;;;;;56.30;31.53;;;1.10;99.90;;;;;;5094855;28;20548;-79
2021/12/05 13:42:14;;;;;;;59.53;32.80;;;1.10;99.90;;;;;;5092909;28;20199;-77
2021/12/05 13:45:08;;;;;;;58.27;33.00;;;1.10;99.90;;;;;;5094788;28;20567;-78
2021/12/05 13:47:39;;;;;;;58.53;31.20;;;1.10;99.90;;;;;;5093116;28;20175;-78
2021/12/05 13:50:32;;;;;;;57.30;32.00;;;1.10;99.90;;;;;;5076975;28;20234;-78
2021/12/05 13:53:16;;;;;;;58.70;32.93;;;1.10;99.90;;;;;;5074137;28;20328;-78
2021/12/05 13:55:44;;;;;;;61.13;34.30;;;1.10;99.90;;;;;;5087512;28;20187;-79
2021/12/05 13:58:24;;;;;;;57.60;31.33;;;1.10;99.90;;;;;;5094753;28;20195;-78
2021/12/05 14:00:57;;;;;;;57.20;32.03;;;1.00;99.90;;;;;;5093911;28;20203;-78
2021/12/05 14:03:52;;;;;;;60.20;34.57;;;1.00;99.90;;;;;;5093755;28;20188;-77
2021/12/05 14:06:32;;;;;;;52.20;29.07;;;1.00;99.90;;;;;;5076351;28;20257;-79
2021/12/05 14:09:04;;;;;;;62.53;34.33;;;1.00;99.90;;;;;;5088412;28;20184;-78
2021/12/05 14:11:32;;;;;;;58.70;35.23;;;1.00;99.90;;;;;;5093915;28;20267;-78
2021/12/05 14:14:02;;;;;;;63.53;35.87;;;1.00;99.90;;;;;;5094207;28;20245;-78
2021/12/05 14:16:36;;;;;;;58.73;31.17;;;1.00;99.90;;;;;;5093643;28;20236;-77
2021/12/05 14:19:06;;;;;;;62.00;33.37;;;1.00;99.90;;;;;;5094235;28;20186;-79
2021/12/05 14:21:38;;;;;;;56.93;27.23;;;1.00;99.90;;;;;;5094146;28;20183;-77
2021/12/05 14:24:05;;;;;;;59.40;29.73;;;0.90;99.90;;;;;;5093531;28;20184;-78
2021/12/05 14:26:39;;;;;;;55.13;29.93;;;0.90;99.90;;;;;;5073472;28;20641;-78
2021/12/05 14:29:09;;;;;;;53.40;28.17;;;0.90;99.90;;;;;;5083170;28;20208;-78
2021/12/05 14:31:40;;;;;;;55.77;27.57;;;0.90;99.90;;;;;;5093195;28;20663;-78
2021/12/05 14:34:10;;;;;;;61.97;32.10;;;0.90;99.90;;;;;;5093075;28;20180;-77
2021/12/05 14:37:05;;;;;;;57.60;31.73;;;0.90;99.90;;;;;;5093539;28;20237;-78
2021/12/05 14:39:34;;;;;;;59.63;33.03;;;1.00;99.90;;;;;;5093464;28;20195;-78
2021/12/05 14:42:05;;;;;;;60.40;32.07;;;0.90;99.90;;;;;;5093093;28;20191;-78
2021/12/05 14:44:38;;;;;;;60.93;32.00;;;1.00;99.90;;;;;;5093238;28;20215;-78
2021/12/05 14:47:36;;;;;;;63.97;35.20;;;1.00;99.90;;;;;;5093370;28;20597;-78
2021/12/05 14:50:18;;;;;;;59.50;33.67;;;1.00;99.90;;;;;;5092470;28;20219;-78
2021/12/05 14:52:48;;;;;;;60.83;30.77;;;1.00;99.90;;;;;;5093336;28;20211;-78
2021/12/05 14:55:18;;;;;;;58.33;33.13;;;1.00;99.90;;;;;;5093820;28;20210;-78
2021/12/05 14:57:48;;;;;;;59.60;31.53;;;1.00;99.90;;;;;;5093326;28;20728;-78
2021/12/05 15:00:22;;;;;;;61.37;32.63;;;1.00;99.90;;;;;;5093395;28;20632;-78
2021/12/05 15:02:58;;;;;;;62.70;33.40;;;1.00;99.90;;;;;;5092917;28;20249;-78
2021/12/05 15:05:26;;;;;;;59.60;33.60;;;1.00;99.90;;;;;;5093005;28;20701;-78
2021/12/05 15:08:05;;;;;;;66.07;36.03;;;1.00;99.90;;;;;;5093310;28;20198;-77
2021/12/05 15:10:33;;;;;;;61.07;32.47;;;0.90;99.90;;;;;;5093267;28;20183;-78
2021/12/05 15:13:00;;;;;;;64.90;35.67;;;1.00;99.90;;;;;;5093017;28;20215;-77
2021/12/05 15:15:27;;;;;;;60.83;33.77;;;1.00;99.90;;;;;;5093096;28;20248;-77
2021/12/05 15:17:57;;;;;;;61.80;33.20;;;1.00;99.90;;;;;;5092776;28;20230;-77
2021/12/05 15:20:35;;;;;;;61.37;34.37;;;1.00;99.90;;;;;;5092319;28;20598;-77
2021/12/05 15:23:05;;;;;;;60.23;31.63;;;1.00;99.90;;;;;;5093092;28;20183;-77
2021/12/05 15:25:34;;;;;;;60.73;31.43;;;1.00;99.90;;;;;;5092647;28;20244;-77
2021/12/05 15:28:03;;;;;;;63.40;33.30;;;1.00;99.90;;;;;;5092965;28;20191;-77
2021/12/05 15:30:32;;;;;;;64.30;34.00;;;1.00;99.90;;;;;;5092621;28;20195;-77
2021/12/05 15:33:03;;;;;;;61.63;32.83;;;1.00;99.90;;;;;;5088408;28;20768;-77
2021/12/05 15:35:31;;;;;;;59.03;30.60;;;1.00;99.90;;;;;;5072374;28;20710;-77
2021/12/05 15:38:27;;;;;;;63.47;32.70;;;1.00;99.90;;;;;;5072711;28;20196;-77
2021/12/05 15:40:56;;;;;;;58.97;36.10;;;1.00;99.90;;;;;;5071986;28;20180;-77
2021/12/05 15:43:27;;;;;;;61.67;33.87;;;1.00;99.90;;;;;;5072537;28;20241;-77
2021/12/05 15:45:57;;;;;;;64.73;32.10;;;1.00;99.90;;;;;;5072318;28;20254;-77
2021/12/05 15:48:29;;;;;;;60.87;35.23;;;1.00;99.90;;;;;;5072179;28;20235;-77
2021/12/05 15:50:59;;;;;;;57.57;32.97;;;1.00;99.90;;;;;;5072210;28;20180;-77
2021/12/05 15:53:30;;;;;;;56.33;31.43;;;1.00;99.90;;;;;;5072345;28;20231;-77
2021/12/05 15:56:00;;;;;;;58.27;34.50;;;1.00;99.90;;;;;;5072640;28;20191;-76
2021/12/05 15:58:31;;;;;;;55.77;32.00;;;1.00;99.90;;;;;;5072115;28;20191;-77
2021/12/05 16:01:04;;;;;;;55.27;32.00;;;1.00;99.90;;;;;;5072115;28;20180;-77
2021/12/05 16:03:43;;;;;;;56.60;30.37;;;1.00;99.90;;;;;;5082598;28;20184;-76
2021/12/05 16:06:13;;;;;;;53.90;30.20;;;0.90;99.90;;;;;;5092288;28;20183;-76
2021/12/05 16:08:42;;;;;;;52.90;31.27;;;0.90;99.90;;;;;;5090068;28;20187;-78
2021/12/05 16:11:13;;;;;;;53.37;31.33;;;0.90;99.90;;;;;;5087009;28;20191;-78
2021/12/05 16:13:42;;;;;;;56.20;32.47;;;0.90;99.90;;;;;;5087878;28;20285;-76
2021/12/05 16:16:12;;;;;;;56.60;31.37;;;0.90;99.90;;;;;;5091693;28;20199;-76
2021/12/05 16:18:43;;;;;;;53.60;30.17;;;0.90;99.90;;;;;;5092044;28;20671;-77
2021/12/05 16:21:18;;;;;;;54.63;32.93;;;0.90;99.90;;;;;;5092146;28;20632;-77
2021/12/05 16:23:49;;;;;;;53.23;28.27;;;0.90;99.90;;;;;;5080960;28;20632;-77
2021/12/05 16:26:29;;;;;;;50.03;27.93;;;0.90;99.90;;;;;;5092103;28;20205;-76
2021/12/05 16:29:03;;;;;;;50.50;26.03;;;0.90;99.90;;;;;;5091744;28;20201;-78
2021/12/05 16:31:39;;;;;;;52.10;29.03;;;0.90;99.90;;;;;;5093543;28;20509;-77
2021/12/05 16:34:22;;;;;;;32.57;15.13;;;0.90;99.90;;;;;;5095138;28;20225;-76
2021/12/05 16:36:59;;;;;;;47.93;24.93;;;0.90;99.90;;;;;;5095846;28;20266;-76
2021/12/05 16:39:34;;;;;;;50.33;25.57;;;0.90;99.90;;;;;;5095885;28;20548;-77
2021/12/05 16:42:06;;;;;;;44.57;24.67;;;0.80;99.90;;;;;;5096002;28;20252;-77
2021/12/05 16:44:37;;;;;;;253.03;134.40;;;0.80;99.90;;;;;;5093748;28;20194;-77
2021/12/05 16:47:11;;;;;;;542.13;261.50;;;0.80;99.90;;;;;;5095929;28;20180;-77
2021/12/05 16:49:42;;;;;;;234.77;178.90;;;0.80;99.90;;;;;;5096024;28;20222;-78
2021/12/05 16:52:16;;;;;;;54.30;29.83;;;0.80;99.90;;;;;;5095185;28;20621;-77
2021/12/05 16:54:50;;;;;;;384.13;199.37;;;0.80;99.90;;;;;;5095300;28;20181;-77
2021/12/05 16:57:22;;;;;;;56.90;32.30;;;0.80;99.90;;;;;;5095760;28;20210;-77
2021/12/05 16:59:53;;;;;;;492.87;241.13;;;0.80;99.90;;;;;;5095513;28;20179;-77
2021/12/05 17:02:23;;;;;;;54.90;29.57;;;0.80;99.90;;;;;;5094897;28;20179;-76
2021/12/05 17:05:00;;;;;;;537.00;218.17;;;0.80;99.90;;;;;;5095182;28;20187;-76
2021/12/05 17:07:46;;;;;;;533.80;222.50;;;0.70;99.90;;;;;;5095193;28;20187;-76
2021/12/05 17:10:33;;;;;;;52.87;29.07;;;0.70;99.90;;;;;;5094870;28;20640;-76
2021/12/05 17:13:09;;;;;;;53.13;28.97;;;0.70;99.90;;;;;;5074923;28;20200;-79
2021/12/05 17:15:43;;;;;;;53.33;29.07;;;0.70;99.90;;;;;;5074926;28;20226;-76
2021/12/05 17:18:16;;;;;;;50.57;29.57;;;0.70;99.90;;;;;;5075246;28;20184;-77